Time;durP1;ratioP1;P1;durP2;ratioP2;P2;SDS_P1;SDS_P2;PMS_P1;PMS_P2;Temp;Humidity;BMP_temperature;BMP_pressure;BME280_temperature;BME280_humidity;BME280_pressure;Samples;Min_cycle;Max_cycle;Signal;HPM_P1;HPM_P2
2023/02/23 00:01:23;;;;;;;72.57;44.53;;;8.70;92.60;;;;;;5043024;28;20037;-72
2023/02/23 00:03:49;;;;;;;75.50;45.83;;;8.70;92.60;;;;;;5028644;28;20029;-74
2023/02/23 00:06:17;;;;;;;71.70;44.75;;;8.70;92.60;;;;;;5045932;28;20069;-72
2023/02/23 00:08:46;;;;;;;76.45;46.10;;;8.60;92.70;;;;;;5029552;28;20067;-72
2023/02/23 00:11:14;;;;;;;74.05;44.75;;;8.60;92.70;;;;;;5045462;28;20124;-71
2023/02/23 00:13:41;;;;;;;76.82;45.40;;;8.70;92.80;;;;;;5047556;28;20044;-74
2023/02/23 00:16:11;;;;;;;80.57;47.20;;;8.60;92.80;;;;;;5046049;28;20473;-73
2023/02/23 00:18:43;;;;;;;74.60;45.25;;;8.60;92.90;;;;;;5030015;28;20041;-72
2023/02/23 00:21:15;;;;;;;77.78;45.20;;;8.70;92.90;;;;;;5045596;28;20473;-72
2023/02/23 00:23:51;;;;;;;73.63;45.97;;;8.70;92.90;;;;;;5043563;28;20032;-72
2023/02/23 00:26:22;;;;;;;77.18;44.65;;;8.60;92.90;;;;;;5047078;28;20029;-72
2023/02/23 00:28:49;;;;;;;71.40;42.75;;;8.70;92.90;;;;;;5028292;28;20393;-72
2023/02/23 00:31:16;;;;;;;72.15;45.63;;;8.70;92.90;;;;;;5027736;28;20378;-72
2023/02/23 00:33:42;;;;;;;75.07;43.67;;;8.60;92.90;;;;;;5047276;28;20481;-73
2023/02/23 00:36:13;;;;;;;74.40;44.50;;;8.60;92.80;;;;;;5048571;28;20048;-72
2023/02/23 00:38:40;;;;;;;75.65;44.72;;;8.60;92.80;;;;;;5044422;28;20048;-72
2023/02/23 00:41:08;;;;;;;81.93;47.13;;;8.60;92.80;;;;;;5029562;28;20048;-73
2023/02/23 00:43:46;;;;;;;79.00;46.03;;;8.60;92.80;;;;;;5048177;28;20039;-71
2023/02/23 00:46:15;;;;;;;80.07;47.10;;;8.60;92.70;;;;;;5044985;28;20485;-71
2023/02/23 00:48:42;;;;;;;76.47;47.90;;;8.60;92.70;;;;;;5044772;28;20056;-74
2023/02/23 00:51:08;;;;;;;82.13;48.58;;;8.60;92.70;;;;;;5046019;28;20405;-72
2023/02/23 00:53:35;;;;;;;78.82;46.20;;;8.60;92.60;;;;;;5043889;28;20017;-72
2023/02/23 00:56:03;;;;;;;78.28;48.28;;;8.60;92.60;;;;;;5046087;28;20539;-72
2023/02/23 00:58:30;;;;;;;80.38;49.03;;;8.60;92.60;;;;;;5041563;28;20029;-72
2023/02/23 01:00:58;;;;;;;80.22;47.10;;;8.60;92.60;;;;;;5041920;28;20033;-72
2023/02/23 01:03:25;;;;;;;81.00;48.40;;;8.60;92.60;;;;;;5047084;28;20017;-73
2023/02/23 01:05:50;;;;;;;79.18;47.00;;;8.60;92.60;;;;;;5046240;28;20051;-72
2023/02/23 01:08:17;;;;;;;80.95;48.72;;;8.60;92.60;;;;;;5045700;28;20025;-73
2023/02/23 01:10:51;;;;;;;79.40;47.50;;;8.60;92.60;;;;;;5045311;28;20037;-72
2023/02/23 01:13:21;;;;;;;81.60;49.78;;;8.60;92.60;;;;;;5043832;28;20028;-72
2023/02/23 01:15:47;;;;;;;74.35;45.75;;;8.60;92.60;;;;;;5042105;28;20456;-72
2023/02/23 01:18:15;;;;;;;88.13;49.60;;;8.60;92.70;;;;;;5047348;28;20052;-72
2023/02/23 01:20:41;;;;;;;83.75;49.03;;;8.60;92.70;;;;;;5042763;28;20053;-72
2023/02/23 01:23:09;;;;;;;80.82;48.90;;;8.50;92.70;;;;;;5046521;28;20037;-72
2023/02/23 01:25:37;;;;;;;81.72;48.00;;;8.50;92.80;;;;;;5045810;28;20032;-74
2023/02/23 01:28:03;;;;;;;85.60;49.67;;;8.60;92.80;;;;;;5029253;28;20502;-72
2023/02/23 01:30:29;;;;;;;82.40;48.70;;;8.50;92.90;;;;;;5046038;28;20576;-72
2023/02/23 01:32:55;;;;;;;79.30;46.92;;;8.50;92.90;;;;;;5049121;28;20369;-72
2023/02/23 01:35:21;;;;;;;84.15;49.72;;;8.50;92.90;;;;;;5045856;28;20059;-72
2023/02/23 01:37:48;;;;;;;85.00;50.25;;;8.50;92.90;;;;;;5045584;28;20045;-71
2023/02/23 01:40:30;;;;;;;85.03;50.30;;;8.60;92.80;;;;;;5046342;28;20021;-71
2023/02/23 01:42:57;;;;;;;82.47;49.92;;;8.50;92.80;;;;;;5043019;28;20033;-72
2023/02/23 01:45:33;;;;;;;86.00;50.78;;;8.60;92.70;;;;;;5042799;28;20024;-72
2023/02/23 01:48:04;;;;;;;82.40;49.58;;;8.50;92.70;;;;;;5046459;28;20071;-72
2023/02/23 01:50:44;;;;;;;83.57;49.67;;;8.60;92.80;;;;;;5045342;28;20056;-72
2023/02/23 01:53:10;;;;;;;84.68;50.50;;;8.50;92.70;;;;;;5045722;28;20021;-72
2023/02/23 01:55:36;;;;;;;85.25;49.92;;;8.50;92.70;;;;;;5045183;28;20025;-72
2023/02/23 01:58:16;;;;;;;80.28;49.13;;;8.50;92.70;;;;;;5046060;28;20041;-72
2023/02/23 02:00:55;;;;;;;84.63;51.10;;;8.50;92.70;;;;;;5044767;28;20036;-71
2023/02/23 02:03:42;;;;;;;84.40;50.55;;;8.50;92.70;;;;;;5043531;28;20104;-72
2023/02/23 02:06:13;;;;;;;87.53;52.90;;;8.40;92.80;;;;;;5025385;28;20116;-71
2023/02/23 02:08:45;;;;;;;80.70;49.88;;;8.50;92.80;;;;;;5045512;28;20037;-71
2023/02/23 02:11:29;;;;;;;83.85;51.22;;;8.40;92.80;;;;;;5025798;28;20123;-72
2023/02/23 02:14:27;;;;;;;81.53;52.40;;;8.40;92.80;;;;;;5040362;28;20032;-73
2023/02/23 02:17:14;;;;;;;83.10;49.60;;;8.40;92.80;;;;;;5046033;28;20049;-71
2023/02/23 02:19:45;;;;;;;84.97;51.00;;;8.40;92.90;;;;;;5044861;28;20481;-72
2023/02/23 02:22:30;;;;;;;78.57;48.40;;;8.40;92.90;;;;;;5044624;28;20067;-72
2023/02/23 02:25:10;;;;;;;90.57;52.85;;;8.40;92.90;;;;;;5045291;28;20044;-72
2023/02/23 02:27:56;;;;;;;90.88;54.20;;;8.40;92.90;;;;;;5046051;28;20055;-72
2023/02/23 02:30:47;;;;;;;87.85;50.38;;;8.30;92.90;;;;;;5045362;28;20056;-71
2023/02/23 02:34:00;;;;;;;92.32;53.45;;;8.40;93.00;;;;;;5038040;28;20041;-70
2023/02/23 02:36:47;;;;;;;82.55;49.40;;;8.40;93.10;;;;;;4973177;28;20042;-73
2023/02/23 02:39:33;;;;;;;84.65;52.65;;;8.30;93.10;;;;;;5042728;28;20060;-72
2023/02/23 02:42:20;;;;;;;78.75;49.08;;;8.40;93.10;;;;;;5038016;28;20033;-72
2023/02/23 02:45:08;;;;;;;86.50;50.90;;;8.40;93.20;;;;;;5046150;28;20070;-71
2023/02/23 02:47:44;;;;;;;81.30;50.42;;;8.40;93.20;;;;;;5047816;28;20045;-72
2023/02/23 02:50:16;;;;;;;76.50;47.85;;;8.40;93.20;;;;;;5046063;28;20033;-72
2023/02/23 02:52:57;;;;;;;82.53;50.97;;;8.40;93.20;;;;;;5045436;28;20045;-72
2023/02/23 02:55:35;;;;;;;85.97;51.38;;;8.40;93.20;;;;;;5031362;28;20044;-72
2023/02/23 02:58:06;;;;;;;85.38;50.90;;;8.40;93.30;;;;;;5045366;28;20044;-71
2023/02/23 04:18:12;;;;;;;98.00;56.40;;;8.10;93.30;;;;;;5048022;28;20430;-73
2023/02/23 04:20:37;;;;;;;94.85;54.20;;;8.10;93.30;;;;;;5047088;28;20029;-72
2023/02/23 04:23:03;;;;;;;95.28;54.30;;;8.10;93.40;;;;;;5044309;28;20029;-72
2023/02/23 04:25:29;;;;;;;94.03;56.47;;;8.00;93.40;;;;;;5047486;28;20021;-72
2023/02/23 04:27:55;;;;;;;86.97;51.10;;;8.00;93.40;;;;;;5046924;28;20414;-73
2023/02/23 04:30:24;;;;;;;93.78;53.67;;;8.00;93.50;;;;;;5042965;28;20508;-73
2023/02/23 04:32:54;;;;;;;93.22;55.95;;;8.00;93.60;;;;;;5045477;28;20094;-72
2023/02/23 04:35:19;;;;;;;100.22;57.38;;;7.90;93.60;;;;;;5047778;28;20025;-70
2023/02/23 04:37:45;;;;;;;98.90;55.58;;;7.90;93.60;;;;;;5046162;28;20261;-71
2023/02/23 04:40:11;;;;;;;92.10;54.03;;;8.00;93.70;;;;;;5042914;28;20041;-71
2023/02/23 04:42:38;;;;;;;86.80;53.88;;;8.00;93.80;;;;;;5046738;28;20135;-73
2023/02/23 04:45:05;;;;;;;86.18;52.58;;;8.00;93.70;;;;;;5043321;28;20029;-73
2023/02/23 04:47:31;;;;;;;94.25;52.83;;;8.00;93.80;;;;;;5041429;28;20048;-73
2023/02/23 04:49:56;;;;;;;86.07;53.13;;;7.90;93.70;;;;;;5042992;28;20102;-73
2023/02/23 04:52:22;;;;;;;91.72;54.10;;;8.00;93.80;;;;;;5047097;28;20052;-72
2023/02/23 04:54:48;;;;;;;79.78;50.20;;;7.90;93.80;;;;;;5047382;28;20112;-73
2023/02/23 04:57:13;;;;;;;89.90;52.88;;;7.90;93.70;;;;;;5044086;28;20449;-72
2023/02/23 04:59:39;;;;;;;94.90;56.70;;;7.90;93.80;;;;;;5042590;28;20545;-73
2023/02/23 05:02:05;;;;;;;79.15;49.65;;;7.90;93.80;;;;;;5045820;28;20131;-73
2023/02/23 05:04:34;;;;;;;80.03;49.50;;;7.90;93.80;;;;;;5046961;28;20108;-72
2023/02/23 05:07:00;;;;;;;85.72;49.03;;;7.90;93.80;;;;;;5045484;28;20044;-72
2023/02/23 05:09:25;;;;;;;83.70;51.35;;;7.90;93.80;;;;;;5046770;28;20219;-72
2023/02/23 05:11:51;;;;;;;88.18;52.40;;;7.90;93.80;;;;;;5045623;28;20029;-72
2023/02/23 05:14:16;;;;;;;87.93;52.38;;;7.90;93.80;;;;;;5042913;28;20043;-72
2023/02/23 05:16:42;;;;;;;82.07;53.25;;;7.90;93.80;;;;;;5045083;28;20748;-71
2023/02/23 05:19:08;;;;;;;91.45;56.63;;;8.00;93.80;;;;;;5044125;28;20083;-71
2023/02/23 05:21:34;;;;;;;90.30;54.33;;;8.00;93.80;;;;;;5044756;28;20043;-71
2023/02/23 05:24:00;;;;;;;86.35;52.58;;;8.00;93.70;;;;;;5046661;28;20453;-71
2023/02/23 05:26:25;;;;;;;88.85;54.85;;;8.00;93.70;;;;;;5042560;28;20036;-70
2023/02/23 05:28:51;;;;;;;87.57;53.78;;;8.00;93.60;;;;;;5046100;28;20052;-71
2023/02/23 05:31:17;;;;;;;89.60;51.80;;;8.00;93.50;;;;;;5039904;28;20443;-71
2023/02/23 05:33:44;;;;;;;89.63;52.67;;;8.00;93.50;;;;;;5044729;28;20029;-71
2023/02/23 05:36:12;;;;;;;94.30;55.38;;;8.00;93.50;;;;;;5042810;28;20405;-71
2023/02/23 05:38:39;;;;;;;83.68;52.63;;;8.00;93.40;;;;;;5045616;28;20533;-71
2023/02/23 05:41:11;;;;;;;82.68;52.40;;;8.00;93.40;;;;;;5045617;28;20031;-73
2023/02/23 05:43:36;;;;;;;81.60;52.65;;;8.00;93.40;;;;;;5041160;28;20137;-72
2023/02/23 05:46:06;;;;;;;87.28;52.85;;;8.00;93.40;;;;;;5043730;28;20548;-71
2023/02/23 05:48:32;;;;;;;79.78;49.42;;;8.10;93.40;;;;;;5044288;28;20488;-72
2023/02/23 05:51:03;;;;;;;91.80;55.13;;;8.00;93.40;;;;;;5046264;28;20464;-71
2023/02/23 05:53:29;;;;;;;101.43;57.88;;;8.00;93.40;;;;;;5043662;28;20052;-71
2023/02/23 05:55:54;;;;;;;95.20;56.30;;;8.00;93.40;;;;;;5046622;28;20057;-72
2023/02/23 05:58:20;;;;;;;92.60;52.90;;;8.00;93.50;;;;;;5043286;28;20044;-71
2023/02/23 06:00:46;;;;;;;101.88;56.30;;;8.00;93.50;;;;;;5041595;28;20040;-72
2023/02/23 06:03:11;;;;;;;94.32;54.28;;;8.00;93.50;;;;;;5046033;28;20037;-73
2023/02/23 06:05:37;;;;;;;96.63;54.30;;;8.00;93.50;;;;;;5024605;28;21214;-71
2023/02/23 06:08:03;;;;;;;86.60;52.45;;;8.00;93.50;;;;;;5046321;28;20057;-72
2023/02/23 06:10:28;;;;;;;89.85;52.63;;;8.00;93.60;;;;;;5027186;28;20025;-72
2023/02/23 06:12:54;;;;;;;91.55;53.65;;;8.10;93.60;;;;;;5027881;28;20324;-72
2023/02/23 06:15:20;;;;;;;88.65;52.25;;;8.10;93.60;;;;;;5023163;28;20424;-72
2023/02/23 06:17:47;;;;;;;91.03;53.50;;;8.00;93.60;;;;;;5044014;28;20307;-71
2023/02/23 06:20:13;;;;;;;90.00;54.35;;;8.10;93.60;;;;;;5050571;28;20040;-72
2023/02/23 06:22:39;;;;;;;89.63;51.97;;;8.00;93.50;;;;;;5047407;28;20126;-72
2023/02/23 06:25:07;;;;;;;86.10;52.33;;;8.00;93.50;;;;;;5047691;28;20370;-72
2023/02/23 06:27:33;;;;;;;91.93;56.00;;;8.00;93.60;;;;;;5045867;28;20088;-72
2023/02/23 06:29:58;;;;;;;95.50;54.97;;;8.00;93.60;;;;;;5050213;28;20075;-73
2023/02/23 06:32:25;;;;;;;84.25;49.88;;;7.90;93.60;;;;;;5030734;28;20123;-72
2023/02/23 06:34:51;;;;;;;84.85;51.92;;;8.00;93.60;;;;;;5049097;28;20032;-73
2023/02/23 06:37:17;;;;;;;86.03;50.85;;;8.00;93.70;;;;;;5048969;28;20037;-72
2023/02/23 06:39:42;;;;;;;86.85;53.50;;;8.00;93.60;;;;;;5048642;28;20025;-72
2023/02/23 06:42:08;;;;;;;88.25;52.33;;;8.00;93.70;;;;;;5049188;28;20036;-72
2023/02/23 06:44:34;;;;;;;88.90;54.75;;;8.00;93.70;;;;;;5049056;28;20422;-72
2023/02/23 06:47:00;;;;;;;88.97;52.80;;;8.00;93.70;;;;;;5044465;28;20430;-72
2023/02/23 06:49:26;;;;;;;79.30;50.38;;;8.00;93.70;;;;;;5048846;28;20044;-73
2023/02/23 06:51:51;;;;;;;79.57;49.85;;;8.00;93.70;;;;;;5031371;28;20131;-72
2023/02/23 06:54:17;;;;;;;84.72;52.75;;;8.00;93.70;;;;;;5030758;28;20021;-72
2023/02/23 06:56:43;;;;;;;86.95;58.28;;;8.00;93.70;;;;;;5047565;28;20044;-73
2023/02/23 06:59:08;;;;;;;86.20;59.33;;;8.00;93.60;;;;;;5047330;28;20025;-72
2023/02/23 07:01:34;;;;;;;84.03;52.13;;;8.00;93.50;;;;;;5045276;28;20033;-72
2023/02/23 07:04:00;;;;;;;75.93;49.88;;;8.00;93.60;;;;;;5043325;28;20710;-71
2023/02/23 07:06:25;;;;;;;86.22;52.88;;;8.00;93.50;;;;;;5049497;28;20347;-72
2023/02/23 07:08:51;;;;;;;85.15;53.28;;;8.00;93.50;;;;;;5049024;28;20033;-72
2023/02/23 07:11:18;;;;;;;85.13;53.35;;;8.00;93.50;;;;;;5049039;28;20416;-73
2023/02/23 07:13:44;;;;;;;91.55;55.15;;;8.00;93.50;;;;;;5046882;28;20036;-72
2023/02/23 07:16:10;;;;;;;87.88;54.10;;;8.00;93.50;;;;;;5046721;28;20499;-71
2023/02/23 07:18:36;;;;;;;82.90;52.83;;;8.00;93.40;;;;;;5040959;28;20033;-72
2023/02/23 07:21:02;;;;;;;87.30;54.67;;;8.00;93.50;;;;;;5047353;28;20078;-72
2023/02/23 07:23:28;;;;;;;82.65;52.38;;;8.00;93.50;;;;;;5046325;28;20028;-72
2023/02/23 07:25:56;;;;;;;82.05;51.28;;;8.00;93.40;;;;;;5022753;28;20071;-72
2023/02/23 07:28:23;;;;;;;86.25;50.92;;;8.10;93.50;;;;;;5048579;28;20218;-73
2023/02/23 07:30:48;;;;;;;90.05;53.13;;;8.10;93.50;;;;;;5046676;28;20129;-72
2023/02/23 07:33:15;;;;;;;89.10;52.15;;;8.10;93.50;;;;;;5047411;28;20107;-73
2023/02/23 07:35:41;;;;;;;85.10;53.40;;;8.20;93.50;;;;;;5029574;28;20025;-72
2023/02/23 07:38:07;;;;;;;85.90;52.90;;;8.20;93.50;;;;;;5048291;28;20024;-72
2023/02/23 07:40:33;;;;;;;85.53;50.60;;;8.30;93.50;;;;;;5047090;28;20029;-72
2023/02/23 07:42:59;;;;;;;85.60;52.05;;;8.30;93.50;;;;;;5047451;28;20355;-72
2023/02/23 07:45:25;;;;;;;78.53;48.65;;;8.40;93.50;;;;;;5030042;28;20016;-71
2023/02/23 07:47:51;;;;;;;83.78;50.80;;;8.40;93.40;;;;;;5045987;28;20049;-73
2023/02/23 07:50:16;;;;;;;89.70;52.05;;;8.50;93.40;;;;;;5048121;28;20477;-74
2023/02/23 07:52:43;;;;;;;83.88;51.85;;;8.60;93.40;;;;;;5047912;28;20037;-71
2023/02/23 07:55:10;;;;;;;87.47;53.25;;;8.60;93.40;;;;;;5046782;28;20477;-72
2023/02/23 07:57:36;;;;;;;85.32;52.45;;;8.60;93.20;;;;;;5048158;28;20029;-71
2023/02/23 08:00:02;;;;;;;89.13;52.55;;;8.60;93.10;;;;;;5044270;28;20484;-71
2023/02/23 08:02:28;;;;;;;86.45;52.50;;;8.70;93.10;;;;;;5043948;28;20486;-71
2023/02/23 08:04:54;;;;;;;86.50;53.13;;;8.70;93.00;;;;;;5027508;28;20021;-74
2023/02/23 08:07:20;;;;;;;82.72;51.33;;;8.80;92.80;;;;;;5052274;28;20048;-73
2023/02/23 08:09:47;;;;;;;88.18;54.17;;;8.80;92.70;;;;;;5027057;28;20033;-73
2023/02/23 08:12:14;;;;;;;83.97;53.40;;;8.80;92.60;;;;;;5047494;28;20428;-72
2023/02/23 08:14:40;;;;;;;85.95;51.75;;;8.90;92.50;;;;;;5045912;28;20075;-73
2023/02/23 08:17:06;;;;;;;87.97;54.50;;;8.90;92.40;;;;;;5042649;28;20041;-72
2023/02/23 08:19:33;;;;;;;91.10;56.47;;;8.90;92.20;;;;;;5046538;28;20071;-73
2023/02/23 08:21:59;;;;;;;85.72;52.05;;;8.90;92.30;;;;;;5042830;28;20037;-72
2023/02/23 08:24:26;;;;;;;90.40;53.97;;;8.90;92.20;;;;;;5027486;28;20080;-71
2023/02/23 08:26:51;;;;;;;89.43;55.47;;;9.00;92.30;;;;;;5023456;28;20098;-72
2023/02/23 08:29:19;;;;;;;93.45;54.95;;;9.00;92.40;;;;;;5039258;28;20045;-72
2023/02/23 08:31:45;;;;;;;88.65;51.95;;;9.10;92.00;;;;;;5035365;28;20026;-71
2023/02/23 08:34:11;;;;;;;90.70;53.80;;;9.10;92.00;;;;;;5038821;28;20489;-73
2023/02/23 08:36:36;;;;;;;90.15;52.67;;;9.10;92.00;;;;;;5041803;28;20040;-72
2023/02/23 08:39:05;;;;;;;91.05;51.80;;;9.10;91.90;;;;;;5036965;28;20164;-72
2023/02/23 08:41:31;;;;;;;88.28;53.08;;;9.10;92.00;;;;;;5041767;28;20020;-72
2023/02/23 08:43:57;;;;;;;88.80;53.10;;;9.10;91.80;;;;;;5042483;28;20435;-72
2023/02/23 08:46:23;;;;;;;88.50;52.65;;;9.10;91.80;;;;;;5038244;28;20028;-72
2023/02/23 08:48:49;;;;;;;90.00;55.80;;;9.30;91.90;;;;;;5041284;28;20037;-71
2023/02/23 08:51:14;;;;;;;94.38;56.90;;;9.20;91.70;;;;;;5040832;28;20452;-73
2023/02/23 08:53:40;;;;;;;90.28;52.95;;;9.30;91.80;;;;;;5044767;28;20020;-73
2023/02/23 08:56:06;;;;;;;91.38;55.15;;;9.30;91.40;;;;;;5037662;28;20045;-73
2023/02/23 08:58:34;;;;;;;90.53;54.40;;;9.50;91.70;;;;;;5042284;28;20032;-74
2023/02/23 09:01:00;;;;;;;87.43;55.17;;;9.60;91.60;;;;;;5045740;28;20032;-73
2023/02/23 09:03:29;;;;;;;87.47;55.65;;;9.70;91.80;;;;;;5028159;28;20432;-73
2023/02/23 09:05:57;;;;;;;89.90;55.58;;;9.70;91.30;;;;;;5045283;28;20155;-71
2023/02/23 09:08:23;;;;;;;90.75;56.83;;;9.70;90.80;;;;;;5046159;28;20120;-71
2023/02/23 09:10:48;;;;;;;91.00;56.70;;;9.80;90.70;;;;;;5045291;28;20177;-72
2023/02/23 09:13:15;;;;;;;98.20;58.33;;;9.90;90.10;;;;;;5042512;28;20083;-72
2023/02/23 09:15:41;;;;;;;94.43;58.58;;;9.70;90.00;;;;;;5047382;28;20028;-79
2023/02/23 09:18:10;;;;;;;100.50;60.15;;;9.70;90.10;;;;;;5052840;28;20545;-74
2023/02/23 09:20:35;;;;;;;88.20;56.47;;;9.60;90.40;;;;;;5049653;28;20740;-75
2023/02/23 09:23:01;;;;;;;94.00;57.72;;;9.70;90.40;;;;;;5045714;28;20124;-75
2023/02/23 09:25:28;;;;;;;90.28;57.33;;;9.90;90.60;;;;;;5048813;28;20119;-79
2023/02/23 09:27:58;;;;;;;92.95;56.63;;;10.00;90.40;;;;;;5047120;28;20036;-75
2023/02/23 09:30:25;;;;;;;94.97;56.80;;;10.00;90.00;;;;;;5027060;28;20237;-75
2023/02/23 09:32:54;;;;;;;89.35;54.78;;;10.00;89.70;;;;;;5047974;28;20116;-75
2023/02/23 09:35:23;;;;;;;85.95;54.15;;;10.10;89.70;;;;;;5046007;28;20024;-76
2023/02/23 09:37:54;;;;;;;89.47;54.80;;;10.00;89.40;;;;;;5049719;28;20036;-75
2023/02/23 09:40:26;;;;;;;85.25;51.15;;;10.10;89.30;;;;;;5042480;28;20021;-75
2023/02/23 09:42:58;;;;;;;86.47;51.13;;;10.10;89.20;;;;;;5048998;28;20040;-75
2023/02/23 09:45:41;;;;;;;91.38;52.58;;;9.90;89.30;;;;;;5028417;28;20025;-76
2023/02/23 09:48:15;;;;;;;89.45;51.80;;;10.10;89.30;;;;;;5048369;28;20041;-76
2023/02/23 09:50:44;;;;;;;92.10;51.17;;;10.10;89.40;;;;;;5029532;28;20021;-75
2023/02/23 09:53:22;;;;;;;86.32;47.75;;;10.30;89.40;;;;;;5045869;28;20474;-75
2023/02/23 09:55:49;;;;;;;88.65;48.72;;;10.20;89.00;;;;;;5044179;28;20034;-74
2023/02/23 09:58:22;;;;;;;91.80;50.88;;;10.10;89.00;;;;;;5043042;28;20522;-75
2023/02/23 10:01:19;;;;;;;92.43;48.70;;;10.10;89.30;;;;;;5048617;28;20098;-74
2023/02/23 10:04:02;;;;;;;91.13;49.28;;;10.10;89.10;;;;;;5045533;28;20140;-75
2023/02/23 10:06:28;;;;;;;92.55;50.17;;;10.20;89.00;;;;;;5047005;28;20396;-76
2023/02/23 10:08:59;;;;;;;92.53;49.28;;;10.10;89.10;;;;;;5044830;28;20041;-75
2023/02/23 10:11:50;;;;;;;89.28;49.40;;;10.10;89.00;;;;;;5036601;28;20037;-74
2023/02/23 10:14:29;;;;;;;87.78;47.30;;;10.00;88.90;;;;;;5040903;28;20033;-75
2023/02/23 10:17:19;;;;;;;95.18;49.50;;;9.90;88.90;;;;;;5026483;28;20377;-74
2023/02/23 10:20:12;;;;;;;86.50;48.45;;;10.10;89.20;;;;;;5028548;28;20041;-74
2023/02/23 10:22:40;;;;;;;75.13;44.25;;;10.10;88.90;;;;;;5041595;28;20563;-75
2023/02/23 10:25:12;;;;;;;81.07;45.72;;;10.10;88.60;;;;;;5055001;28;20068;-75
2023/02/23 10:27:45;;;;;;;84.53;45.80;;;10.10;88.60;;;;;;5035870;28;20080;-75
2023/02/23 10:30:32;;;;;;;79.38;46.30;;;10.10;88.80;;;;;;5045007;28;20051;-73
2023/02/23 10:33:10;;;;;;;77.03;43.65;;;10.30;88.70;;;;;;5043892;28;20041;-74
2023/02/23 10:35:37;;;;;;;76.55;44.65;;;10.30;87.80;;;;;;5040855;28;20088;-74
2023/02/23 10:38:04;;;;;;;78.20;43.45;;;10.20;87.90;;;;;;5045071;28;20485;-74
2023/02/23 10:40:32;;;;;;;80.60;43.88;;;10.30;88.20;;;;;;5041532;28;20112;-74
2023/02/23 10:43:00;;;;;;;75.50;42.80;;;10.30;87.90;;;;;;5047219;28;20070;-74
2023/02/23 10:45:28;;;;;;;75.57;41.55;;;10.50;88.20;;;;;;5044296;28;20166;-74
2023/02/23 10:48:00;;;;;;;77.55;43.20;;;10.40;87.00;;;;;;5043532;28;20051;-75
2023/02/23 10:50:27;;;;;;;75.75;41.58;;;10.50;87.60;;;;;;5045407;28;20028;-74
2023/02/23 10:53:05;;;;;;;77.32;44.85;;;10.60;87.60;;;;;;5021188;28;20718;-75
2023/02/23 10:55:32;;;;;;;75.22;42.60;;;10.60;86.70;;;;;;5044540;28;20025;-75
2023/02/23 10:58:18;;;;;;;74.07;41.58;;;10.90;87.30;;;;;;5047081;28;20477;-76
2023/02/23 11:00:59;;;;;;;69.82;41.00;;;10.90;86.20;;;;;;5040849;28;20044;-76
2023/02/23 11:03:39;;;;;;;72.45;40.08;;;10.90;86.20;;;;;;5044551;28;20140;-76
2023/02/23 11:06:05;;;;;;;68.40;39.13;;;10.90;85.70;;;;;;5044873;28;20500;-75
2023/02/23 11:08:36;;;;;;;66.70;38.83;;;10.80;86.10;;;;;;5029634;28;20029;-77
2023/02/23 11:11:16;;;;;;;68.80;39.17;;;10.90;85.80;;;;;;5043075;28;20029;-76
2023/02/23 11:13:49;;;;;;;68.72;37.05;;;11.00;85.70;;;;;;5037571;28;20033;-75
2023/02/23 11:16:24;;;;;;;68.10;38.80;;;11.00;85.90;;;;;;5042999;28;20033;-74
2023/02/23 11:18:58;;;;;;;65.00;37.38;;;10.90;85.90;;;;;;5043362;28;20053;-75
2023/02/23 11:21:33;;;;;;;68.88;36.70;;;10.70;85.90;;;;;;5043732;28;20539;-75
2023/02/23 11:24:17;;;;;;;;;;;10.60;86.30;;;;;;5046509;28;20025;-74
2023/02/23 11:26:44;;;;;;;66.07;37.30;;;10.60;86.60;;;;;;5043314;28;19975;-73
2023/02/23 11:29:37;;;;;;;68.35;39.03;;;10.60;86.90;;;;;;5037570;28;20056;-76
2023/02/23 11:32:14;;;;;;;63.88;37.53;;;10.60;86.40;;;;;;5041727;28;20040;-76
2023/02/23 11:34:42;;;;;;;67.88;39.20;;;10.50;86.90;;;;;;5042830;28;20032;-75
2023/02/23 11:37:30;;;;;;;60.60;36.47;;;10.60;87.00;;;;;;5037861;28;20514;-75
2023/02/23 11:40:01;;;;;;;64.13;37.47;;;10.60;87.00;;;;;;5044552;28;20098;-76
2023/02/23 11:42:32;;;;;;;68.95;38.47;;;10.60;86.60;;;;;;5043598;28;20075;-76
2023/02/23 11:45:14;;;;;;;67.57;38.53;;;10.60;86.30;;;;;;5039844;28;20044;-75
2023/02/23 11:47:44;;;;;;;68.05;40.15;;;10.60;86.50;;;;;;5035198;28;20041;-76
2023/02/23 11:50:37;;;;;;;63.85;39.40;;;10.60;86.50;;;;;;5035886;28;20494;-76
2023/02/23 11:53:15;;;;;;;68.32;40.10;;;10.60;86.40;;;;;;5035304;28;20090;-76
2023/02/23 11:55:53;;;;;;;64.20;40.00;;;10.60;85.90;;;;;;5037545;28;20024;-76
2023/02/23 11:58:46;;;;;;;65.80;39.80;;;10.60;86.10;;;;;;5018225;28;20402;-76
2023/02/23 12:01:15;;;;;;;64.45;37.65;;;10.50;86.00;;;;;;5037290;28;20078;-74
2023/02/23 12:03:59;;;;;;;64.90;39.20;;;10.60;86.60;;;;;;5038200;28;20029;-75
2023/02/23 12:06:30;;;;;;;66.10;39.78;;;10.70;86.60;;;;;;5038255;28;20121;-76
2023/02/23 12:09:27;;;;;;;65.95;39.00;;;10.60;86.20;;;;;;5037418;28;20029;-76
2023/02/23 12:12:19;;;;;;;69.75;41.03;;;10.60;85.90;;;;;;5037122;28;20075;-74
2023/02/23 12:15:12;;;;;;;69.18;38.92;;;10.80;86.30;;;;;;5008715;28;20034;-75
2023/02/23 12:17:47;;;;;;;65.10;37.33;;;10.80;85.30;;;;;;5035243;28;20059;-75
2023/02/23 12:20:36;;;;;;;64.38;36.17;;;10.70;85.30;;;;;;5033276;28;20033;-74
2023/02/23 12:23:19;;;;;;;65.70;38.13;;;10.80;85.10;;;;;;5034268;28;20311;-75
2023/02/23 12:25:51;;;;;;;60.78;34.60;;;11.00;84.60;;;;;;5031928;28;20025;-76
2023/02/23 12:28:35;;;;;;;65.10;35.63;;;10.90;84.50;;;;;;5035333;28;20107;-74
2023/02/23 12:31:27;;;;;;;62.78;36.15;;;11.00;84.20;;;;;;5030405;28;20123;-75
2023/02/23 12:34:01;;;;;;;65.47;35.10;;;11.00;84.20;;;;;;5036606;28;20032;-73
2023/02/23 12:36:45;;;;;;;59.85;34.50;;;11.10;84.00;;;;;;5022246;28;20029;-74
2023/02/23 12:39:31;;;;;;;57.60;33.28;;;11.00;83.20;;;;;;5037428;28;20037;-74
2023/02/23 12:42:03;;;;;;;59.13;32.80;;;11.10;82.90;;;;;;5041666;28;20048;-75
2023/02/23 12:44:52;;;;;;;55.75;32.08;;;10.80;83.50;;;;;;5044756;28;20033;-74
2023/02/23 12:47:36;;;;;;;58.50;31.48;;;10.60;83.50;;;;;;5026138;28;20029;-74
2023/02/23 12:50:12;;;;;;;52.42;29.95;;;10.60;83.30;;;;;;5042729;28;20114;-76
2023/02/23 12:53:05;;;;;;;53.33;31.00;;;10.70;83.80;;;;;;5039484;28;20093;-76
2023/02/23 12:56:03;;;;;;;47.80;28.70;;;10.80;83.20;;;;;;5041935;28;20028;-76
2023/02/23 12:58:56;;;;;;;46.78;27.13;;;10.70;83.00;;;;;;5023914;28;20124;-75
2023/02/23 13:01:26;;;;;;;47.38;27.50;;;10.70;82.80;;;;;;5029707;28;20033;-75
2023/02/23 13:04:23;;;;;;;49.00;27.98;;;10.60;83.10;;;;;;5046039;28;20029;-75
2023/02/23 13:07:00;;;;;;;45.63;27.35;;;10.60;83.70;;;;;;5053012;28;20037;-76
2023/02/23 13:09:46;;;;;;;43.90;25.98;;;10.40;85.00;;;;;;5043043;28;20584;-76
2023/02/23 13:12:35;;;;;;;41.72;23.80;;;10.30;85.30;;;;;;5038360;28;20045;-77
2023/02/23 13:15:19;;;;;;;43.78;25.98;;;10.10;86.20;;;;;;4997557;28;20095;-76
2023/02/23 13:17:57;;;;;;;42.38;25.83;;;10.20;86.20;;;;;;5040748;28;20057;-75
2023/02/23 13:20:32;;;;;;;43.08;24.58;;;10.10;86.10;;;;;;5043503;28;20035;-77
2023/02/23 13:23:05;;;;;;;38.65;24.02;;;10.20;86.30;;;;;;5041569;28;20119;-77
2023/02/23 13:26:00;;;;;;;46.90;28.05;;;10.10;85.90;;;;;;5040285;28;20052;-77
2023/02/23 13:28:40;;;;;;;42.88;25.77;;;10.30;85.90;;;;;;5023142;28;20104;-75
2023/02/23 13:31:23;;;;;;;44.22;25.45;;;10.20;85.40;;;;;;5042506;28;20128;-75
2023/02/23 13:33:50;;;;;;;39.25;24.05;;;10.30;85.10;;;;;;5038350;28;20025;-75
2023/02/23 13:36:17;;;;;;;42.85;25.25;;;10.30;85.00;;;;;;5042208;28;20614;-75
2023/02/23 13:39:05;;;;;;;40.20;24.73;;;10.30;85.20;;;;;;5033283;28;20033;-74
2023/02/23 13:41:44;;;;;;;41.00;24.50;;;10.40;85.40;;;;;;5040050;28;20041;-75
2023/02/23 13:44:31;;;;;;;39.10;24.65;;;10.40;84.60;;;;;;5042551;28;20405;-74
2023/02/23 13:47:45;;;;;;;40.75;25.02;;;10.40;84.30;;;;;;5043023;28;20033;-74
2023/02/23 13:50:26;;;;;;;36.17;24.35;;;10.50;84.00;;;;;;4943537;28;20050;-74
2023/02/23 13:52:57;;;;;;;36.63;22.98;;;10.40;84.20;;;;;;5037777;28;20049;-76
2023/02/23 13:55:25;;;;;;;38.88;23.30;;;10.30;83.90;;;;;;5042746;28;20040;-76
2023/02/23 13:57:52;;;;;;;36.45;22.77;;;10.40;84.10;;;;;;5039769;28;20094;-74
2023/02/23 14:00:19;;;;;;;37.53;23.52;;;10.40;84.00;;;;;;5038985;28;20609;-74
2023/02/23 14:02:46;;;;;;;36.90;24.65;;;10.60;83.80;;;;;;5039183;28;20155;-75
2023/02/23 14:05:25;;;;;;;35.65;22.80;;;10.60;83.80;;;;;;5038918;28;20021;-75
2023/02/23 14:07:54;;;;;;;33.97;22.63;;;10.70;83.30;;;;;;5040117;28;20041;-76
2023/02/23 14:10:24;;;;;;;32.17;21.38;;;10.70;82.80;;;;;;5036597;28;20035;-75
2023/02/23 14:13:03;;;;;;;33.83;21.88;;;10.80;82.60;;;;;;5041591;28;20045;-75
2023/02/23 14:15:36;;;;;;;35.53;21.90;;;10.80;82.40;;;;;;5037255;28;20032;-75